WEATHER/FLIGHT PLANNING

Hattiesburg Radar

 

 

 

 

Weather Links

Flight Planning Links

 

METAR

2019/09/22 06:53 KHBG 220653Z AUTO 00000KT 10SM CLR 20/19 A3013 RMK AO2 SLP200 T02000189

TAF

2019/09/22 06:42 TAF KHBG 220539Z 2206/2306 00000KT P6SM SKC FM221500 14008KT P6SM SCT080